Time;durP1;ratioP1;P1;durP2;ratioP2;P2;SDS_P1;SDS_P2;PMS_P1;PMS_P2;Temp;Humidity;BMP_temperature;BMP_pressure;BME280_temperature;BME280_humidity;BME280_pressure;Samples;Min_cycle;Max_cycle;Signal;HPM_P1;HPM_P2
2021/10/09 00:00:48;;;;;;;16.35;4.32;;;15.20;54.70;;;;;;5073257;28;20103;-78
2021/10/09 00:03:14;;;;;;;5.85;3.60;;;15.10;55.30;;;;;;5073396;28;20036;-79
2021/10/09 00:05:39;;;;;;;9.15;4.20;;;15.00;54.80;;;;;;5073530;28;20025;-79
2021/10/09 00:08:13;;;;;;;13.95;3.60;;;14.90;55.40;;;;;;5073518;28;20085;-77
2021/10/09 00:10:39;;;;;;;10.10;4.10;;;14.90;55.90;;;;;;5073350;28;20033;-78
2021/10/09 00:13:05;;;;;;;7.10;3.90;;;14.90;55.80;;;;;;5073311;28;20028;-79
2021/10/09 00:15:31;;;;;;;10.95;4.10;;;14.90;56.20;;;;;;5073017;28;20035;-78
2021/10/09 00:17:56;;;;;;;7.22;3.35;;;14.80;56.10;;;;;;5073535;28;20021;-79
2021/10/09 00:20:22;;;;;;;11.73;3.83;;;14.80;56.50;;;;;;5073435;28;20020;-80
2021/10/09 00:22:48;;;;;;;16.63;4.50;;;14.80;56.70;;;;;;5073399;28;20512;-79
2021/10/09 00:25:14;;;;;;;12.60;4.70;;;14.80;56.90;;;;;;5073272;28;20103;-80
2021/10/09 00:27:39;;;;;;;10.40;4.50;;;14.80;57.10;;;;;;5072801;28;20078;-79
2021/10/09 00:30:06;;;;;;;8.77;4.22;;;14.70;57.30;;;;;;5072876;28;20447;-79
2021/10/09 00:32:32;;;;;;;12.55;4.72;;;14.70;57.80;;;;;;5073332;28;20025;-80
2021/10/09 00:34:58;;;;;;;14.45;4.10;;;14.70;57.70;;;;;;5073223;28;20025;-80
2021/10/09 00:37:23;;;;;;;12.35;4.15;;;14.70;57.10;;;;;;5073147;28;20393;-79
2021/10/09 00:39:49;;;;;;;10.70;4.25;;;14.60;57.20;;;;;;5072815;28;20017;-78
2021/10/09 00:42:16;;;;;;;9.40;4.53;;;14.50;57.40;;;;;;5072953;28;20074;-79
2021/10/09 00:44:41;;;;;;;10.05;4.10;;;14.50;57.60;;;;;;5072922;28;20104;-79
2021/10/09 00:47:07;;;;;;;15.23;4.38;;;14.40;58.00;;;;;;5072723;28;20024;-79
2021/10/09 00:49:33;;;;;;;9.35;4.20;;;14.40;58.90;;;;;;5072542;28;20028;-79
2021/10/09 00:52:02;;;;;;;13.80;4.45;;;14.40;58.60;;;;;;5072991;28;20039;-79
2021/10/09 00:54:28;;;;;;;7.93;3.78;;;14.40;58.70;;;;;;5072983;28;20366;-80
2021/10/09 00:56:57;;;;;;;6.88;3.47;;;14.40;56.70;;;;;;5073050;28;20020;-79
2021/10/09 00:59:27;;;;;;;17.15;4.13;;;14.40;55.90;;;;;;5069968;28;20029;-79
2021/10/09 01:01:54;;;;;;;8.10;3.70;;;14.40;55.70;;;;;;5069930;28;20107;-79
2021/10/09 01:04:21;;;;;;;8.48;3.65;;;14.40;55.80;;;;;;5070755;28;20094;-79
2021/10/09 01:06:47;;;;;;;10.90;3.50;;;14.40;55.50;;;;;;5072347;28;20074;-79
2021/10/09 01:09:12;;;;;;;7.10;2.95;;;14.50;55.20;;;;;;5072471;28;20024;-78
2021/10/09 01:11:40;;;;;;;10.35;3.10;;;14.50;54.20;;;;;;5072655;28;20032;-78
2021/10/09 01:14:06;;;;;;;5.60;3.10;;;14.60;53.20;;;;;;5072346;28;20357;-79
2021/10/09 01:16:32;;;;;;;5.47;2.75;;;14.60;53.00;;;;;;5071317;28;20525;-79
2021/10/09 01:18:58;;;;;;;9.15;3.65;;;14.60;52.60;;;;;;5072388;28;20108;-80
2021/10/09 01:21:25;;;;;;;8.50;3.63;;;14.60;52.90;;;;;;5072600;28;20103;-79
2021/10/09 01:23:52;;;;;;;10.75;4.05;;;14.60;52.70;;;;;;5072405;28;20024;-80
2021/10/09 01:26:19;;;;;;;10.05;3.83;;;14.70;53.60;;;;;;5072614;28;20071;-79
2021/10/09 01:28:50;;;;;;;7.18;4.55;;;14.70;54.40;;;;;;5072073;28;20148;-79
2021/10/09 01:31:17;;;;;;;10.27;3.87;;;14.60;54.90;;;;;;5072828;28;20044;-79
2021/10/09 01:33:43;;;;;;;8.77;3.67;;;14.60;55.40;;;;;;5072946;28;20029;-79
2021/10/09 01:36:09;;;;;;;7.65;3.67;;;14.60;55.10;;;;;;5070797;28;20116;-78
2021/10/09 01:38:35;;;;;;;9.75;3.63;;;14.60;54.90;;;;;;5072116;28;20116;-79
2021/10/09 01:41:02;;;;;;;8.40;3.22;;;14.60;53.40;;;;;;5072054;28;20032;-79
2021/10/09 01:43:29;;;;;;;13.88;3.55;;;14.60;52.80;;;;;;5074491;28;20035;-78
2021/10/09 01:45:55;;;;;;;12.52;3.58;;;14.50;53.20;;;;;;5076095;28;20437;-77
2021/10/09 01:48:36;;;;;;;11.45;3.45;;;14.60;51.80;;;;;;5075991;28;20077;-80
2021/10/09 01:51:03;;;;;;;10.82;3.28;;;14.60;51.90;;;;;;5075267;28;20071;-78
2021/10/09 01:53:30;;;;;;;5.90;3.25;;;14.60;51.20;;;;;;5075425;28;20021;-79
2021/10/09 01:55:56;;;;;;;6.68;3.47;;;14.70;50.90;;;;;;5075664;28;20103;-79
2021/10/09 01:58:22;;;;;;;10.00;3.38;;;14.70;51.20;;;;;;5075224;28;20074;-77
2021/10/09 02:00:48;;;;;;;13.43;4.05;;;14.70;51.60;;;;;;5075605;28;20028;-78
2021/10/09 02:03:17;;;;;;;13.13;3.25;;;14.70;52.20;;;;;;5075835;28;20032;-79
2021/10/09 02:05:43;;;;;;;10.32;3.88;;;14.70;52.90;;;;;;5076010;28;20075;-79
2021/10/09 02:08:09;;;;;;;10.75;3.92;;;14.60;53.10;;;;;;5076397;28;20416;-81
2021/10/09 02:10:43;;;;;;;13.05;3.78;;;14.60;52.70;;;;;;5076099;28;20063;-79
2021/10/09 02:13:10;;;;;;;11.02;3.45;;;14.60;52.50;;;;;;5076058;28;20055;-79
2021/10/09 02:15:41;;;;;;;7.35;3.60;;;14.60;52.60;;;;;;5075821;28;20020;-79
2021/10/09 02:26:20;;;;;;;11.98;3.55;;;14.60;52.20;;;;;;5075449;28;20040;-79
2021/10/09 02:28:45;;;;;;;10.60;3.40;;;14.60;52.50;;;;;;5076068;28;20369;-79
2021/10/09 02:31:11;;;;;;;9.48;3.83;;;14.60;52.90;;;;;;5075122;28;20531;-78
2021/10/09 02:33:37;;;;;;;13.05;4.30;;;14.60;52.80;;;;;;5075289;28;20028;-79
2021/10/09 02:36:03;;;;;;;7.78;3.38;;;14.60;52.40;;;;;;5075471;28;20481;-78
2021/10/09 02:38:29;;;;;;;8.88;3.50;;;14.50;52.10;;;;;;5075315;28;20021;-80
2021/10/09 02:40:55;;;;;;;11.20;4.20;;;14.50;52.70;;;;;;5074947;28;20054;-80
2021/10/09 02:43:21;;;;;;;11.50;3.70;;;14.50;52.80;;;;;;5074985;28;20119;-76
2021/10/09 02:45:47;;;;;;;8.82;3.60;;;14.50;51.00;;;;;;5075421;28;20087;-73
2021/10/09 02:48:16;;;;;;;9.98;3.40;;;14.50;50.30;;;;;;5075306;28;20048;-79
2021/10/09 02:50:43;;;;;;;10.25;4.28;;;14.60;50.00;;;;;;5075002;28;20481;-79
2021/10/09 02:53:08;;;;;;;8.35;3.88;;;14.60;49.80;;;;;;5074957;28;20100;-78
2021/10/09 02:55:34;;;;;;;12.45;3.92;;;14.60;49.70;;;;;;5075012;28;20067;-79
2021/10/09 02:57:59;;;;;;;9.93;3.40;;;14.60;49.50;;;;;;5075284;28;20024;-79
2021/10/09 03:00:25;;;;;;;8.75;3.75;;;14.60;49.80;;;;;;5074832;28;20024;-79
2021/10/09 03:02:51;;;;;;;8.73;3.45;;;14.60;50.00;;;;;;5074939;28;20473;-78
2021/10/09 03:05:18;;;;;;;12.68;4.03;;;14.60;49.40;;;;;;5074837;28;20495;-78
2021/10/09 03:07:43;;;;;;;14.98;3.85;;;14.60;49.20;;;;;;5074778;28;20062;-78
2021/10/09 03:10:10;;;;;;;16.67;3.63;;;14.70;48.90;;;;;;5074814;28;20129;-79
2021/10/09 03:12:37;;;;;;;13.43;3.97;;;14.60;49.00;;;;;;5074931;28;20036;-78
2021/10/09 03:15:04;;;;;;;15.07;4.10;;;14.60;49.30;;;;;;5074626;28;20138;-79
2021/10/09 03:17:30;;;;;;;12.98;3.92;;;14.60;49.70;;;;;;5074696;28;20017;-79
2021/10/09 03:19:55;;;;;;;13.52;3.60;;;14.70;49.40;;;;;;5074413;28;20025;-78
2021/10/09 03:22:21;;;;;;;12.18;3.30;;;14.70;50.10;;;;;;5074504;28;20066;-79
2021/10/09 03:24:47;;;;;;;10.68;3.65;;;14.60;49.90;;;;;;5074486;28;20036;-78
2021/10/09 03:27:13;;;;;;;8.85;3.72;;;14.60;49.90;;;;;;5074081;28;20024;-79
2021/10/09 03:29:38;;;;;;;10.85;3.60;;;14.50;50.90;;;;;;5074255;28;20033;-79
2021/10/09 03:32:04;;;;;;;8.55;3.50;;;14.50;50.30;;;;;;5077762;28;20048;-79
2021/10/09 03:34:33;;;;;;;18.17;4.20;;;14.50;50.40;;;;;;5076061;28;20031;-79
2021/10/09 03:37:03;;;;;;;10.60;3.72;;;14.50;49.20;;;;;;5075978;28;20020;-79
2021/10/09 03:39:30;;;;;;;11.20;3.47;;;14.50;49.40;;;;;;5074440;28;20028;-79
2021/10/09 03:42:02;;;;;;;10.68;4.32;;;14.50;47.10;;;;;;5074400;28;20093;-79
2021/10/09 03:44:31;;;;;;;9.77;3.88;;;14.50;48.50;;;;;;5074218;28;20111;-79
2021/10/09 03:47:42;;;;;;;14.65;4.30;;;14.50;50.00;;;;;;5073969;28;20036;-79
2021/10/09 03:49:58;;;;;;;11.20;4.10;;;14.50;50.00;;;;;;5073383;28;20128;-79
2021/10/09 03:52:44;;;;;;;16.45;4.10;;;14.40;50.10;;;;;;5073989;28;20075;-79
2021/10/09 03:55:14;;;;;;;9.27;3.60;;;14.40;48.00;;;;;;5073545;28;20021;-79
2021/10/09 03:57:40;;;;;;;12.27;3.13;;;14.40;46.00;;;;;;5073580;28;20115;-77
2021/10/09 04:00:07;;;;;;;7.82;3.35;;;14.40;46.20;;;;;;5073514;28;20056;-78
2021/10/09 04:02:33;;;;;;;8.10;3.78;;;14.40;45.60;;;;;;5073775;28;20021;-79
2021/10/09 04:04:59;;;;;;;15.63;3.88;;;14.40;46.30;;;;;;5072920;28;20516;-79
2021/10/09 04:07:25;;;;;;;9.68;3.72;;;14.50;46.60;;;;;;5073559;28;20109;-78
2021/10/09 04:09:51;;;;;;;8.15;3.90;;;14.40;46.50;;;;;;5073365;28;20037;-79
2021/10/09 04:12:17;;;;;;;10.25;3.60;;;14.50;46.50;;;;;;5073468;28;20039;-78
2021/10/09 04:14:43;;;;;;;13.27;3.83;;;14.50;45.50;;;;;;5073205;28;20028;-79
2021/10/09 04:17:08;;;;;;;11.73;3.22;;;14.50;45.70;;;;;;5073386;28;20103;-79
2021/10/09 04:19:34;;;;;;;8.73;3.70;;;14.60;44.80;;;;;;5072087;28;20039;-78
2021/10/09 04:22:00;;;;;;;11.02;3.70;;;14.60;44.50;;;;;;5073595;28;20024;-79
2021/10/09 04:24:26;;;;;;;12.20;3.53;;;14.50;45.40;;;;;;5073226;28;20028;-79
2021/10/09 04:26:52;;;;;;;7.22;3.30;;;14.50;45.90;;;;;;5072910;28;20024;-79
2021/10/09 04:29:18;;;;;;;7.40;3.30;;;14.50;45.70;;;;;;5072582;28;20029;-79
2021/10/09 04:31:43;;;;;;;9.05;3.88;;;14.50;45.70;;;;;;5071086;28;20056;-79
2021/10/09 04:34:09;;;;;;;11.23;3.75;;;14.50;45.90;;;;;;5072463;28;20111;-79
2021/10/09 04:36:35;;;;;;;12.10;3.78;;;14.50;46.40;;;;;;5070747;28;20389;-79
2021/10/09 04:39:01;;;;;;;9.57;3.40;;;14.50;46.50;;;;;;5072172;28;20047;-79
2021/10/09 04:41:26;;;;;;;12.80;3.97;;;14.50;46.10;;;;;;5071881;28;20107;-79
2021/10/09 04:43:52;;;;;;;9.70;3.53;;;14.50;46.60;;;;;;5071949;28;20461;-79
2021/10/09 04:46:18;;;;;;;15.63;4.18;;;14.50;47.00;;;;;;5072316;28;20028;-79
2021/10/09 04:48:44;;;;;;;10.07;3.90;;;14.50;47.10;;;;;;5071905;28;20466;-79
2021/10/09 04:51:09;;;;;;;12.73;3.85;;;14.50;46.50;;;;;;5072178;28;20040;-78
2021/10/09 04:53:35;;;;;;;11.48;3.70;;;14.50;46.00;;;;;;5071938;28;20467;-79
2021/10/09 04:56:01;;;;;;;11.35;3.63;;;14.50;46.10;;;;;;5072246;28;20069;-79
2021/10/09 04:58:26;;;;;;;8.02;3.30;;;14.50;46.20;;;;;;5072202;28;20021;-80
2021/10/09 05:00:52;;;;;;;12.82;4.03;;;14.50;46.00;;;;;;5071922;28;20468;-78
2021/10/09 05:03:18;;;;;;;11.55;3.60;;;14.40;46.20;;;;;;5072011;28;20028;-79
2021/10/09 05:05:44;;;;;;;12.73;3.28;;;14.40;47.00;;;;;;5072009;28;20032;-79
2021/10/09 05:08:10;;;;;;;9.73;3.28;;;14.40;47.40;;;;;;5071608;28;20099;-79
2021/10/09 05:10:37;;;;;;;10.10;3.20;;;14.40;48.10;;;;;;5071996;28;20028;-79
2021/10/09 05:13:04;;;;;;;10.68;3.63;;;14.30;47.70;;;;;;5072061;28;20055;-79
2021/10/09 05:15:30;;;;;;;14.40;3.65;;;14.30;48.50;;;;;;5073458;28;20031;-79
2021/10/09 05:17:55;;;;;;;10.23;4.00;;;14.20;48.40;;;;;;5073435;28;20381;-79
2021/10/09 05:20:21;;;;;;;6.65;3.60;;;14.20;48.80;;;;;;5075274;28;20020;-79
2021/10/09 05:22:47;;;;;;;8.95;4.28;;;14.10;48.90;;;;;;5075495;28;20028;-79
2021/10/09 05:25:13;;;;;;;10.45;3.72;;;14.10;49.00;;;;;;5075379;28;20032;-78
2021/10/09 05:27:41;;;;;;;10.70;4.53;;;14.10;49.80;;;;;;5075160;28;20052;-79
2021/10/09 05:30:11;;;;;;;12.25;3.72;;;14.00;50.20;;;;;;5033927;28;1178243;-79
2021/10/09 05:32:46;;;;;;;13.02;4.82;;;14.00;50.30;;;;;;5076516;28;20035;-86
2021/10/09 05:35:12;;;;;;;9.80;4.00;;;14.00;50.50;;;;;;5076591;28;20032;-81
2021/10/09 05:37:38;;;;;;;14.63;3.50;;;13.90;50.50;;;;;;5076419;28;20556;-77
2021/10/09 05:40:04;;;;;;;7.35;3.63;;;13.90;50.40;;;;;;5076058;28;20103;-78
2021/10/09 05:42:29;;;;;;;10.60;3.88;;;13.90;50.50;;;;;;5076313;28;20469;-78
2021/10/09 05:44:56;;;;;;;11.38;3.35;;;13.90;50.60;;;;;;5076202;28;20032;-78
2021/10/09 05:47:22;;;;;;;15.10;4.80;;;14.00;50.00;;;;;;5076455;28;20404;-79
2021/10/09 05:49:53;;;;;;;10.85;3.78;;;14.00;50.80;;;;;;5074497;28;20037;-77
2021/10/09 05:53:10;;;;;;;9.57;4.30;;;14.00;50.50;;;;;;5074917;28;20025;-79
2021/10/09 05:57:55;;;;;;;19.38;11.95;;;14.00;50.80;;;;;;5075782;28;20036;-76
2021/10/09 06:49:41;;;;;;;14.27;4.88;;;13.90;56.90;;;;;;5035159;28;20046;-78
2021/10/09 07:00:19;;;;;;;7.25;3.75;;;14.10;55.30;;;;;;5034754;28;20509;-78
2021/10/09 07:02:45;;;;;;;11.75;4.47;;;14.20;54.60;;;;;;5034303;28;20017;-78
2021/10/09 07:05:13;;;;;;;9.73;4.78;;;14.30;54.60;;;;;;5034176;28;20024;-77
2021/10/09 07:07:50;;;;;;;8.93;4.90;;;14.40;54.10;;;;;;5034453;28;20025;-76
2021/10/09 07:10:16;;;;;;;16.08;4.88;;;14.50;54.60;;;;;;5034481;28;20037;-78
2021/10/09 07:12:42;;;;;;;12.48;4.75;;;14.50;54.40;;;;;;5034590;28;20021;-79
2021/10/09 07:15:10;;;;;;;11.07;4.50;;;14.60;54.10;;;;;;5033836;28;20044;-82
2021/10/09 07:17:36;;;;;;;8.45;4.00;;;14.60;54.20;;;;;;5032168;28;20056;-83
2021/10/09 07:20:04;;;;;;;14.52;4.65;;;14.70;53.90;;;;;;5032201;28;20060;-74
2021/10/09 07:22:31;;;;;;;10.30;3.40;;;14.80;52.80;;;;;;5033308;28;20037;-77
2021/10/09 07:24:57;;;;;;;13.00;4.03;;;14.80;51.40;;;;;;5034814;28;20466;-77
2021/10/09 07:27:23;;;;;;;13.52;3.97;;;14.90;51.70;;;;;;5034740;28;20052;-73
2021/10/09 07:29:49;;;;;;;9.82;4.05;;;15.00;50.80;;;;;;5034665;28;20073;-86
2021/10/09 07:32:14;;;;;;;7.95;4.30;;;15.10;50.40;;;;;;5034308;28;20037;-84
2021/10/09 07:34:40;;;;;;;9.45;3.80;;;15.10;50.70;;;;;;5034672;28;20037;-85
2021/10/09 07:37:06;;;;;;;12.23;4.32;;;15.20;50.40;;;;;;5033996;28;20021;-87
2021/10/09 07:39:32;;;;;;;10.73;4.03;;;15.20;49.10;;;;;;5031337;28;20026;-79
2021/10/09 07:41:59;;;;;;;12.57;4.03;;;15.30;49.10;;;;;;5031157;28;20508;-79
2021/10/09 07:44:24;;;;;;;9.02;4.15;;;15.30;49.80;;;;;;5032396;28;20025;-78
2021/10/09 07:46:51;;;;;;;8.48;3.40;;;15.40;49.20;;;;;;5031987;28;20026;-78
2021/10/09 07:49:16;;;;;;;8.32;3.60;;;15.40;48.90;;;;;;5034276;28;20053;-78
2021/10/09 07:51:42;;;;;;;11.65;3.97;;;15.50;48.70;;;;;;5034304;28;20500;-78
2021/10/09 07:54:08;;;;;;;10.43;3.70;;;15.60;48.60;;;;;;5034522;28;20017;-79
2021/10/09 07:56:34;;;;;;;12.88;3.97;;;15.70;48.90;;;;;;5034500;28;20057;-78
2021/10/09 07:58:59;;;;;;;12.68;3.42;;;15.70;47.50;;;;;;5033743;28;20048;-80
2021/10/09 08:01:25;;;;;;;10.88;3.80;;;15.80;46.60;;;;;;5033271;28;20028;-78
2021/10/09 08:03:52;;;;;;;11.85;3.80;;;15.90;45.60;;;;;;5033220;28;20076;-79
2021/10/09 08:06:18;;;;;;;13.25;3.50;;;15.90;45.70;;;;;;5033130;28;20128;-79
2021/10/09 08:08:44;;;;;;;11.73;3.30;;;16.00;45.60;;;;;;5033210;28;20029;-79
2021/10/09 08:11:10;;;;;;;9.68;4.20;;;16.00;46.40;;;;;;5033788;28;20051;-79
2021/10/09 08:13:36;;;;;;;11.63;3.40;;;16.10;45.70;;;;;;5033943;28;20436;-80
2021/10/09 08:16:04;;;;;;;10.38;3.70;;;16.10;44.90;;;;;;5033747;28;20037;-78
2021/10/09 08:18:31;;;;;;;15.23;3.88;;;16.20;45.00;;;;;;5033598;28;20481;-76
2021/10/09 08:21:05;;;;;;;7.93;3.20;;;16.20;44.10;;;;;;5033791;28;20030;-78
2021/10/09 08:36:52;;;;;;;10.60;3.42;;;16.50;42.50;;;;;;5033464;28;20128;-79
2021/10/09 08:39:18;;;;;;;13.10;3.75;;;16.60;43.00;;;;;;5033293;28;20037;-78
2021/10/09 08:41:44;;;;;;;11.80;3.10;;;16.60;43.00;;;;;;5033372;28;20028;-78
2021/10/09 08:44:10;;;;;;;9.20;3.25;;;16.70;43.90;;;;;;5033592;28;20112;-78
2021/10/09 08:46:36;;;;;;;8.80;3.30;;;16.70;43.10;;;;;;5033317;28;20524;-77
2021/10/09 08:49:01;;;;;;;6.65;2.90;;;16.80;43.00;;;;;;5032772;28;20097;-79
2021/10/09 08:51:28;;;;;;;5.97;3.33;;;16.90;42.30;;;;;;5033336;28;20033;-78
2021/10/09 08:54:03;;;;;;;9.85;2.92;;;16.90;42.10;;;;;;5033460;28;20455;-79
2021/10/09 08:56:33;;;;;;;6.97;2.97;;;16.90;42.50;;;;;;5033188;28;20036;-78
2021/10/09 08:59:31;;;;;;;12.88;3.35;;;17.00;43.50;;;;;;5032193;28;20386;-78
2021/10/09 09:04:49;;;;;;;5.18;2.53;;;17.10;41.40;;;;;;5031952;28;20036;-79
2021/10/09 09:32:11;;;;;;;13.55;3.30;;;17.70;41.90;;;;;;5032492;28;20559;-80
2021/10/09 09:35:21;;;;;;;7.47;3.13;;;17.80;40.00;;;;;;5032486;28;20067;-81
2021/10/09 09:40:12;;;;;;;8.30;3.15;;;17.90;41.80;;;;;;5030058;28;20022;-80
2021/10/09 09:42:49;;;;;;;4.95;2.72;;;18.00;40.60;;;;;;5030169;28;20440;-76
2021/10/09 09:45:23;;;;;;;9.52;2.72;;;18.00;40.50;;;;;;5032233;28;20521;-76
2021/10/09 09:47:49;;;;;;;10.88;3.05;;;18.10;40.00;;;;;;5032553;28;20025;-76
2021/10/09 09:50:15;;;;;;;6.85;3.28;;;18.10;40.50;;;;;;5031104;28;20504;-77
2021/10/09 09:52:43;;;;;;;12.10;3.63;;;18.20;39.80;;;;;;5032349;28;20378;-76
2021/10/09 09:55:11;;;;;;;12.05;2.95;;;18.20;39.30;;;;;;5032647;28;20029;-78
2021/10/09 09:57:38;;;;;;;10.45;3.13;;;18.20;39.90;;;;;;5032415;28;20036;-81
2021/10/09 10:00:09;;;;;;;6.45;2.83;;;18.30;40.50;;;;;;5031925;28;20470;-78
2021/10/09 10:02:50;;;;;;;7.47;2.85;;;18.30;40.50;;;;;;5032741;28;20036;-76
2021/10/09 10:05:16;;;;;;;6.28;3.10;;;18.30;40.40;;;;;;5036118;28;20382;-79
2021/10/09 10:07:42;;;;;;;8.45;3.30;;;18.30;40.10;;;;;;5035716;28;20056;-80
2021/10/09 10:10:09;;;;;;;8.27;3.50;;;18.30;40.40;;;;;;5035792;28;20026;-76
2021/10/09 10:12:37;;;;;;;8.77;2.83;;;18.30;40.50;;;;;;5035913;28;20402;-79
2021/10/09 10:15:11;;;;;;;10.25;3.42;;;18.30;40.20;;;;;;5035727;28;20049;-79
2021/10/09 10:17:45;;;;;;;6.53;2.88;;;18.40;41.10;;;;;;5035984;28;20442;-78
2021/10/09 10:20:14;;;;;;;6.07;3.30;;;18.40;40.80;;;;;;5033313;28;20382;-81
2021/10/09 10:22:40;;;;;;;7.40;3.17;;;18.50;41.80;;;;;;5032933;28;20482;-81
2021/10/09 10:25:26;;;;;;;12.77;3.08;;;18.50;40.70;;;;;;5035087;28;20026;-79
2021/10/09 10:28:02;;;;;;;8.68;3.20;;;18.50;40.40;;;;;;5035836;28;20021;-73
2021/10/09 10:30:42;;;;;;;11.25;3.28;;;18.50;40.60;;;;;;5035538;28;20045;-79
2021/10/09 10:33:09;;;;;;;7.85;3.25;;;18.60;39.60;;;;;;5034968;28;20036;-77
2021/10/09 10:35:35;;;;;;;8.40;3.40;;;18.60;40.20;;;;;;5034002;28;20049;-80
2021/10/09 10:38:25;;;;;;;10.73;3.65;;;18.60;39.20;;;;;;5033699;28;20030;-81
2021/10/09 10:41:01;;;;;;;6.38;3.20;;;18.70;40.60;;;;;;5032071;28;20021;-77
2021/10/09 10:43:35;;;;;;;10.68;3.20;;;18.70;41.40;;;;;;5033046;28;20223;-79
2021/10/09 10:46:34;;;;;;;10.27;3.55;;;18.90;41.70;;;;;;5035498;28;20033;-77
2021/10/09 10:57:01;;;;;;;10.80;3.78;;;19.10;40.60;;;;;;5035009;28;20371;-80
2021/10/09 10:59:35;;;;;;;12.00;3.50;;;19.20;40.10;;;;;;5034724;28;20496;-76
2021/10/09 11:02:11;;;;;;;14.68;3.67;;;19.20;41.20;;;;;;5034807;28;20030;-76
2021/10/09 11:04:44;;;;;;;10.88;3.58;;;19.20;40.60;;;;;;5035001;28;20022;-78
2021/10/09 11:07:11;;;;;;;9.23;3.70;;;19.20;40.40;;;;;;5034062;28;20032;-77
2021/10/09 11:09:40;;;;;;;7.75;3.20;;;19.10;41.00;;;;;;5036287;28;20029;-78
2021/10/09 11:12:28;;;;;;;10.90;3.90;;;19.10;40.70;;;;;;5037269;28;20470;-77
2021/10/09 11:15:06;;;;;;;12.57;3.83;;;19.10;41.00;;;;;;5035492;28;20427;-74
2021/10/09 11:17:40;;;;;;;12.68;4.13;;;19.20;41.60;;;;;;5036099;28;20025;-80
2021/10/09 11:20:11;;;;;;;12.57;4.28;;;19.30;40.50;;;;;;5034756;28;20028;-78
2021/10/09 11:22:49;;;;;;;12.15;3.83;;;19.30;41.60;;;;;;5034639;28;20028;-78
2021/10/09 11:25:31;;;;;;;9.40;3.40;;;19.40;40.70;;;;;;5034427;28;20056;-78
2021/10/09 11:28:00;;;;;;;12.82;3.78;;;19.40;40.10;;;;;;5034426;28;20026;-79
2021/10/09 11:30:27;;;;;;;10.95;3.53;;;19.50;40.20;;;;;;5034072;28;20049;-79
2021/10/09 11:32:55;;;;;;;7.60;3.72;;;19.50;40.10;;;;;;5034731;28;20025;-78
2021/10/09 11:35:38;;;;;;;12.20;3.47;;;19.40;39.40;;;;;;5034450;28;20554;-77
2021/10/09 11:38:16;;;;;;;10.18;3.28;;;19.30;38.60;;;;;;5034861;28;20359;-77
2021/10/09 11:40:47;;;;;;;9.60;3.67;;;19.40;39.10;;;;;;5034631;28;20032;-78
2021/10/09 11:43:17;;;;;;;10.27;3.47;;;19.50;40.20;;;;;;5034498;28;20032;-76
2021/10/09 11:46:01;;;;;;;12.35;3.85;;;19.60;40.00;;;;;;5033800;28;20112;-79
2021/10/09 11:56:45;;;;;;;7.70;3.25;;;19.60;39.40;;;;;;5032547;28;20037;-79
2021/10/09 11:59:13;;;;;;;10.25;3.63;;;19.60;38.30;;;;;;5033012;28;20490;-77
2021/10/09 12:01:46;;;;;;;8.68;3.50;;;19.70;39.60;;;;;;5032865;28;20032;-75
2021/10/09 12:04:29;;;;;;;10.55;3.50;;;19.80;39.40;;;;;;5033802;28;20021;-79
2021/10/09 12:07:01;;;;;;;8.63;3.38;;;19.90;39.30;;;;;;5033697;28;20036;-78
2021/10/09 12:09:34;;;;;;;7.23;3.30;;;20.00;38.10;;;;;;5033411;28;20075;-73
2021/10/09 12:12:22;;;;;;;11.52;4.13;;;20.00;37.90;;;;;;5032623;28;20045;-71
2021/10/09 12:14:50;;;;;;;8.68;3.78;;;20.00;37.80;;;;;;5033440;28;20025;-75
2021/10/09 12:17:18;;;;;;;12.35;3.38;;;20.10;37.40;;;;;;5033126;28;20032;-77
2021/10/09 12:19:46;;;;;;;8.85;3.70;;;20.20;38.00;;;;;;5032813;28;20022;-76
2021/10/09 12:22:14;;;;;;;7.25;3.97;;;20.20;37.00;;;;;;5031998;28;20010;-79
2021/10/09 12:24:51;;;;;;;13.23;4.30;;;20.20;38.50;;;;;;5033395;28;20108;-75
2021/10/09 12:27:20;;;;;;;10.73;4.35;;;20.20;38.10;;;;;;5033013;28;20437;-74
2021/10/09 12:29:56;;;;;;;11.32;4.22;;;20.20;38.20;;;;;;5033245;28;20065;-75
2021/10/09 12:32:22;;;;;;;14.15;4.72;;;20.10;37.30;;;;;;5033061;28;20498;-72
2021/10/09 12:35:00;;;;;;;10.65;4.35;;;20.10;37.90;;;;;;5032921;28;20048;-76
2021/10/09 12:37:27;;;;;;;11.00;4.70;;;20.00;38.30;;;;;;5033027;28;20028;-78
2021/10/09 12:40:36;;;;;;;14.88;4.45;;;20.10;38.60;;;;;;5032141;28;20032;-78
2021/10/09 12:43:01;;;;;;;16.55;4.70;;;20.10;38.70;;;;;;5030230;28;20033;-78
2021/10/09 12:45:28;;;;;;;11.48;4.25;;;20.20;39.00;;;;;;5032714;28;20030;-76
2021/10/09 12:47:56;;;;;;;12.45;4.28;;;20.20;38.90;;;;;;5032729;28;20013;-78
2021/10/09 12:50:22;;;;;;;9.57;3.78;;;20.20;39.50;;;;;;5032602;28;20041;-77
2021/10/09 12:52:48;;;;;;;12.10;4.75;;;20.20;38.60;;;;;;5032422;28;20063;-78
2021/10/09 12:55:14;;;;;;;10.30;4.65;;;20.20;38.30;;;;;;5031987;28;20426;-78
2021/10/09 12:57:54;;;;;;;11.93;4.50;;;20.20;38.20;;;;;;5032385;28;20103;-78
2021/10/09 13:00:21;;;;;;;11.82;4.15;;;20.10;37.30;;;;;;5032767;28;20057;-77
2021/10/09 13:02:47;;;;;;;11.10;5.13;;;20.10;38.20;;;;;;5032221;28;20032;-77
2021/10/09 13:05:13;;;;;;;8.10;4.32;;;20.00;38.40;;;;;;5031334;28;20064;-78
2021/10/09 13:07:39;;;;;;;12.93;4.68;;;20.00;38.60;;;;;;5032427;28;20032;-76
2021/10/09 13:10:06;;;;;;;11.82;4.60;;;20.00;38.60;;;;;;5030652;28;20036;-77
2021/10/09 13:12:32;;;;;;;10.50;4.60;;;19.90;38.50;;;;;;5031674;28;20040;-77
2021/10/09 13:14:58;;;;;;;13.32;4.50;;;19.90;38.80;;;;;;5032578;28;20109;-77
2021/10/09 13:17:24;;;;;;;8.60;4.25;;;19.90;38.80;;;;;;5032797;28;20034;-75
2021/10/09 13:19:49;;;;;;;11.05;4.47;;;19.90;38.30;;;;;;5032398;28;20025;-79
2021/10/09 13:22:15;;;;;;;10.20;5.10;;;19.80;38.80;;;;;;5029649;28;20033;-73
2021/10/09 13:24:41;;;;;;;10.20;4.45;;;19.80;38.80;;;;;;5029375;28;20025;-77
2021/10/09 13:27:07;;;;;;;13.50;4.57;;;19.80;38.40;;;;;;5030230;28;20030;-78
2021/10/09 13:29:32;;;;;;;15.52;4.55;;;19.70;38.90;;;;;;5031064;28;20026;-75
2021/10/09 13:31:58;;;;;;;16.67;4.38;;;19.70;39.50;;;;;;5031164;28;20049;-77
2021/10/09 13:34:24;;;;;;;6.50;4.20;;;19.70;40.50;;;;;;5030919;28;20079;-77
2021/10/09 13:36:50;;;;;;;11.95;4.63;;;19.70;39.80;;;;;;5031198;28;20037;-75
2021/10/09 13:39:16;;;;;;;11.63;5.22;;;19.70;40.00;;;;;;5034517;28;20022;-76
2021/10/09 13:41:42;;;;;;;15.10;4.60;;;19.70;40.40;;;;;;5036067;28;20116;-76
2021/10/09 13:44:08;;;;;;;12.30;4.25;;;19.70;40.90;;;;;;5036103;28;20021;-75
2021/10/09 13:46:37;;;;;;;10.45;4.80;;;19.70;40.30;;;;;;5034848;28;20040;-74
2021/10/09 13:49:04;;;;;;;10.35;4.47;;;19.60;39.90;;;;;;5035881;28;20018;-77
2021/10/09 13:51:30;;;;;;;16.80;4.75;;;19.50;40.10;;;;;;5033809;28;20403;-76
2021/10/09 13:53:56;;;;;;;12.55;4.93;;;19.50;40.30;;;;;;5035293;28;20036;-78
2021/10/09 13:56:21;;;;;;;12.63;4.93;;;19.40;40.80;;;;;;5035977;28;20026;-73
2021/10/09 13:58:47;;;;;;;13.25;4.85;;;19.30;41.30;;;;;;5036381;28;20025;-78
2021/10/09 14:01:14;;;;;;;12.20;4.85;;;19.30;41.30;;;;;;5036311;28;20163;-78
2021/10/09 14:03:45;;;;;;;12.15;4.90;;;19.20;41.00;;;;;;5035075;28;20151;-76
2021/10/09 14:06:11;;;;;;;16.95;4.53;;;19.20;41.30;;;;;;5034874;28;20029;-78
2021/10/09 14:08:36;;;;;;;15.18;5.57;;;19.10;41.20;;;;;;5035849;28;20096;-78
2021/10/09 14:11:03;;;;;;;12.60;5.10;;;19.10;41.10;;;;;;5035863;28;20612;-78
2021/10/09 14:13:29;;;;;;;12.77;5.18;;;19.00;41.60;;;;;;5035957;28;20100;-77
2021/10/09 14:15:55;;;;;;;15.05;5.28;;;18.90;42.10;;;;;;5034303;28;20036;-78
2021/10/09 14:18:21;;;;;;;16.63;4.78;;;18.90;41.70;;;;;;5035515;28;20017;-77
2021/10/09 14:20:52;;;;;;;17.48;5.10;;;18.80;41.40;;;;;;5035483;28;20540;-78
2021/10/09 14:23:19;;;;;;;12.23;5.20;;;18.80;42.00;;;;;;5035921;28;20466;-78
2021/10/09 14:25:45;;;;;;;10.85;4.40;;;18.80;41.80;;;;;;5035880;28;20027;-76
2021/10/09 14:28:12;;;;;;;15.32;5.78;;;18.70;41.80;;;;;;5035599;28;20029;-78
2021/10/09 14:30:39;;;;;;;12.80;5.10;;;18.70;42.00;;;;;;5034992;28;20107;-76
2021/10/09 14:33:07;;;;;;;22.40;5.13;;;18.60;42.90;;;;;;5035654;28;20049;-76
2021/10/09 14:35:35;;;;;;;16.00;5.53;;;18.60;43.20;;;;;;5035517;28;20021;-78
2021/10/09 14:38:01;;;;;;;18.83;5.32;;;18.60;43.00;;;;;;5035224;28;20032;-77
2021/10/09 14:40:27;;;;;;;15.38;5.10;;;18.50;43.10;;;;;;5035082;28;20036;-78
2021/10/09 14:42:53;;;;;;;12.95;5.32;;;18.50;43.00;;;;;;5035315;28;20021;-79
2021/10/09 14:45:19;;;;;;;12.13;6.07;;;18.50;43.50;;;;;;5035203;28;20477;-77
2021/10/09 15:19:51;;;;;;;11.90;5.55;;;18.00;44.00;;;;;;5034629;28;20041;-77
2021/10/09 15:22:17;;;;;;;13.00;5.95;;;18.00;44.30;;;;;;5034446;28;20033;-74
2021/10/09 15:24:42;;;;;;;9.65;5.57;;;18.00;44.60;;;;;;5034552;28;20440;-76
2021/10/09 15:27:08;;;;;;;16.65;5.93;;;17.90;44.00;;;;;;5034378;28;20056;-77